Time;durP1;ratioP1;P1;durP2;ratioP2;P2;SDS_P1;SDS_P2;PMS_P1;PMS_P2;Temp;Humidity;BMP_temperature;BMP_pressure;BME280_temperature;BME280_humidity;BME280_pressure;Samples;Min_cycle;Max_cycle;Signal;HPM_P1;HPM_P2
2022/04/05 00:01:02;;;;;;;13.02;7.93;;;;;;;3.73;64.41;98722.84;4232903;33;35086;-70
2022/04/05 00:03:30;;;;;;;16.02;8.25;;;;;;;3.62;64.29;98714.22;4232887;33;35323;-70
2022/04/05 00:06:01;;;;;;;15.35;7.85;;;;;;;3.93;63.79;98714.38;4233859;33;33900;-70
2022/04/05 00:08:29;;;;;;;15.05;8.43;;;;;;;3.57;64.66;98708.16;4232991;33;34738;-70
2022/04/05 00:10:58;;;;;;;13.88;7.47;;;;;;;3.61;64.75;98713.31;4233701;33;35134;-70
2022/04/05 00:13:27;;;;;;;12.65;7.60;;;;;;;3.39;65.35;98696.03;4231447;33;34448;-70
2022/04/05 00:15:55;;;;;;;13.43;7.97;;;;;;;3.54;64.95;98702.97;4233711;33;33671;-70
2022/04/05 00:18:25;;;;;;;16.10;7.85;;;;;;;3.47;65.41;98702.06;4232776;33;34037;-70
2022/04/05 00:20:53;;;;;;;14.05;8.30;;;;;;;3.20;66.23;98698.44;4232416;33;35070;-70
2022/04/05 00:23:22;;;;;;;14.68;8.20;;;;;;;3.54;65.40;98697.84;4233121;33;34707;-70
2022/04/05 00:25:51;;;;;;;14.32;7.97;;;;;;;3.42;65.83;98696.91;4233126;33;33772;-70
2022/04/05 00:28:19;;;;;;;10.35;6.80;;;;;;;3.76;64.29;98691.13;4231686;33;33743;-70
2022/04/05 00:30:48;;;;;;;16.05;8.32;;;;;;;3.86;64.05;98698.03;4232726;33;36136;-70
2022/04/05 00:33:17;;;;;;;13.82;7.28;;;;;;;3.76;64.25;98698.84;4231593;33;35299;-70
2022/04/05 00:35:46;;;;;;;17.52;8.10;;;;;;;3.68;65.49;98697.94;4243860;33;33704;-70
2022/04/05 00:38:14;;;;;;;13.85;7.43;;;;;;;3.50;66.85;98688.38;4233108;33;34014;-70
2022/04/05 00:40:43;;;;;;;14.07;7.40;;;;;;;4.07;65.37;98686.12;4232756;33;35905;-70
2022/04/05 00:43:11;;;;;;;14.98;7.78;;;;;;;3.85;64.95;98680.00;4232774;33;34544;-70
2022/04/05 00:45:40;;;;;;;13.68;8.00;;;;;;;3.95;65.09;98684.34;4233493;33;33746;-70
2022/04/05 00:48:09;;;;;;;14.90;7.45;;;;;;;4.03;65.21;98680.09;4231888;33;33803;-70
2022/04/05 00:50:39;;;;;;;12.98;6.93;;;;;;;4.17;64.81;98682.75;4244227;33;35032;-70
2022/04/05 00:53:08;;;;;;;13.38;7.32;;;;;;;4.27;64.90;98674.19;4243091;33;34844;-70
2022/04/05 00:55:38;;;;;;;15.00;6.95;;;;;;;4.18;65.63;98672.44;4232337;33;34352;-70
2022/04/05 00:58:09;;;;;;;13.77;6.60;;;;;;;4.54;64.86;98667.41;4232010;33;33986;-71
2022/04/05 01:00:39;;;;;;;9.73;5.10;;;;;;;4.45;65.06;98667.37;4232565;33;35786;-71
2022/04/05 01:03:08;;;;;;;10.55;6.70;;;;;;;4.83;64.19;98664.88;4231557;33;34434;-70
2022/04/05 01:05:38;;;;;;;12.07;6.90;;;;;;;4.80;64.29;98664.00;4233353;33;34654;-70
2022/04/05 01:08:07;;;;;;;12.52;7.57;;;;;;;5.00;63.68;98667.47;4220268;33;33948;-70
2022/04/05 01:10:36;;;;;;;11.15;6.18;;;;;;;4.77;64.06;98661.44;4242283;33;35256;-71
2022/04/05 01:13:04;;;;;;;12.15;7.22;;;;;;;5.21;62.29;98660.63;4229350;33;33841;-70
2022/04/05 01:15:33;;;;;;;11.15;6.55;;;;;;;4.85;63.05;98663.19;4233307;33;34479;-70
2022/04/05 01:18:02;;;;;;;13.18;6.57;;;;;;;4.97;62.87;98657.16;4231735;33;34190;-70
2022/04/05 01:20:32;;;;;;;13.90;7.12;;;;;;;5.29;62.14;98656.28;4232149;33;35440;-70
2022/04/05 01:23:01;;;;;;;14.45;7.75;;;;;;;5.43;61.38;98656.28;4231475;33;35286;-70
2022/04/05 01:25:30;;;;;;;12.70;6.97;;;;;;;4.80;63.72;98658.84;4232086;33;33677;-70
2022/04/05 01:27:58;;;;;;;10.73;7.05;;;;;;;4.98;63.26;98655.41;4232344;33;34838;-70
2022/04/05 01:30:27;;;;;;;13.82;7.00;;;;;;;4.85;62.67;98657.13;4231977;33;35629;-70
2022/04/05 01:32:59;;;;;;;13.52;7.20;;;;;;;4.33;65.24;98653.59;4233493;33;34526;-70
2022/04/05 01:35:28;;;;;;;9.15;5.50;;;;;;;4.56;64.36;98656.22;4231801;33;34509;-71
2022/04/05 01:37:57;;;;;;;13.05;7.32;;;;;;;5.47;61.68;98648.53;4233256;33;33850;-71
2022/04/05 01:40:26;;;;;;;10.43;6.97;;;;;;;5.19;62.61;98657.16;4242599;33;36569;-70
2022/04/05 01:42:55;;;;;;;12.07;6.72;;;;;;;5.02;62.76;98652.84;4232149;33;32946;-70
2022/04/05 01:45:24;;;;;;;13.38;7.10;;;;;;;4.87;63.17;98650.25;4231247;33;34358;-71
2022/04/05 01:47:53;;;;;;;13.13;7.65;;;;;;;5.33;62.02;98647.69;4232337;33;34734;-70
2022/04/05 01:50:22;;;;;;;13.23;7.25;;;;;;;5.38;61.54;98647.69;4232215;33;35805;-70
2022/04/05 01:52:51;;;;;;;12.63;6.85;;;;;;;5.27;62.15;98650.28;4231886;33;34427;-70
2022/04/05 01:55:20;;;;;;;13.73;7.00;;;;;;;5.22;62.49;98652.00;4232176;33;33914;-70
2022/04/05 01:57:48;;;;;;;10.60;7.00;;;;;;;5.77;60.27;98644.19;4232167;33;34020;-70
2022/04/05 02:00:17;;;;;;;12.80;6.55;;;;;;;5.44;61.14;98642.53;4232062;33;35137;-70
2022/04/05 02:02:46;;;;;;;10.13;5.95;;;;;;;5.35;62.34;98645.97;4231973;33;34403;-70
2022/04/05 02:05:16;;;;;;;15.05;7.50;;;;;;;5.78;61.32;98642.44;4232149;33;33786;-70
2022/04/05 02:07:44;;;;;;;14.38;7.05;;;;;;;5.68;60.88;98636.44;4231823;33;33892;-71
2022/04/05 02:10:12;;;;;;;14.07;8.02;;;;;;;5.32;61.78;98633.91;4232099;33;35283;-71
2022/04/05 02:12:40;;;;;;;13.32;8.30;;;;;;;5.20;62.04;98627.91;4231656;33;35233;-71
2022/04/05 02:15:09;;;;;;;12.37;7.57;;;;;;;5.28;61.14;98639.09;4229013;33;33782;-70
2022/04/05 02:17:39;;;;;;;15.13;8.13;;;;;;;4.86;62.70;98633.06;4232872;33;33011;-70
2022/04/05 02:20:08;;;;;;;13.93;7.82;;;;;;;4.96;63.41;98632.22;4230676;33;35613;-71
2022/04/05 02:22:36;;;;;;;11.07;6.78;;;;;;;5.31;61.50;98624.47;4232837;33;34571;-70
2022/04/05 02:25:06;;;;;;;12.63;7.15;;;;;;;5.22;62.02;98631.34;4232012;33;34054;-71
2022/04/05 02:27:35;;;;;;;12.35;7.18;;;;;;;5.39;61.26;98634.78;4231853;33;34797;-70
2022/04/05 02:30:03;;;;;;;12.15;6.72;;;;;;;5.19;62.87;98629.66;4231696;33;34998;-70
2022/04/05 02:32:31;;;;;;;12.95;6.75;;;;;;;5.24;62.21;98629.63;4231323;33;34284;-70
2022/04/05 02:35:00;;;;;;;12.48;6.22;;;;;;;5.99;60.15;98626.06;4231594;33;34530;-70
2022/04/05 02:37:28;;;;;;;12.32;6.70;;;;;;;6.15;59.35;98612.19;4232529;33;33895;-70
2022/04/05 02:39:57;;;;;;;9.77;6.68;;;;;;;5.93;59.99;98618.28;4231833;33;34977;-71
2022/04/05 02:42:26;;;;;;;13.40;7.20;;;;;;;5.36;61.58;98608.09;4232546;33;35270;-70
2022/04/05 02:44:56;;;;;;;13.60;7.05;;;;;;;5.75;60.82;98608.88;4230918;33;34405;-71
2022/04/05 02:47:25;;;;;;;11.02;6.53;;;;;;;4.91;62.85;98602.97;4231536;33;34798;-70
2022/04/05 02:49:54;;;;;;;12.20;7.22;;;;;;;5.58;61.37;98603.78;4231765;33;35175;-71
2022/04/05 02:52:23;;;;;;;10.07;6.25;;;;;;;5.34;61.55;98602.94;4232471;33;34571;-70
2022/04/05 02:54:52;;;;;;;11.60;6.37;;;;;;;5.08;62.57;98603.84;4231373;33;34399;-70
2022/04/05 02:57:21;;;;;;;9.90;5.90;;;;;;;5.03;62.58;98594.38;4231378;33;33913;-70
2022/04/05 02:59:50;;;;;;;10.18;6.22;;;;;;;5.07;62.72;98599.53;4231485;33;35724;-70
2022/04/05 03:02:19;;;;;;;14.15;7.00;;;;;;;5.11;62.43;98593.50;4229912;33;34484;-71
2022/04/05 03:04:47;;;;;;;11.25;6.70;;;;;;;5.43;61.91;98600.34;4231304;33;34629;-70
2022/04/05 03:07:16;;;;;;;12.95;6.50;;;;;;;5.63;61.45;98592.56;4232136;33;33938;-70
2022/04/05 03:09:44;;;;;;;12.68;7.78;;;;;;;6.08;60.13;98587.25;4229644;33;34472;-70
2022/04/05 03:12:13;;;;;;;10.25;5.75;;;;;;;5.87;60.47;98576.09;4233477;33;35257;-70
2022/04/05 03:14:42;;;;;;;10.50;5.90;;;;;;;5.86;60.27;98573.53;4233194;33;34500;-70
2022/04/05 03:17:10;;;;;;;10.27;6.47;;;;;;;5.25;61.79;98577.16;4232821;33;34814;-70
2022/04/05 03:19:39;;;;;;;11.25;6.53;;;;;;;5.36;61.62;98570.22;4233480;33;35154;-70
2022/04/05 03:22:09;;;;;;;8.75;5.72;;;;;;;5.48;61.63;98562.47;4233956;33;35106;-70
2022/04/05 03:24:38;;;;;;;10.13;5.95;;;;;;;5.47;61.12;98565.91;4233178;33;32821;-71
2022/04/05 03:27:09;;;;;;;8.70;5.95;;;;;;;5.88;59.53;98562.31;4232500;33;32445;-70
2022/04/05 03:29:38;;;;;;;14.52;7.03;;;;;;;6.34;58.83;98571.59;4233401;33;34922;-70
2022/04/05 03:32:06;;;;;;;14.38;6.50;;;;;;;6.08;59.45;98564.81;4232718;33;34577;-70
2022/04/05 03:34:35;;;;;;;14.07;7.70;;;;;;;6.51;57.91;98568.91;4232980;33;34593;-70
2022/04/05 03:37:04;;;;;;;13.43;7.70;;;;;;;6.32;57.99;98575.03;4233942;33;33923;-70
2022/04/05 03:39:32;;;;;;;11.68;7.28;;;;;;;5.92;59.44;98570.91;4231154;33;35768;-71
2022/04/05 03:42:00;;;;;;;9.70;6.18;;;;;;;6.49;58.32;98568.03;4244234;33;35219;-70
2022/04/05 03:44:28;;;;;;;10.00;6.10;;;;;;;6.31;57.72;98569.00;4232991;33;33669;-70
2022/04/05 03:46:57;;;;;;;10.52;6.53;;;;;;;6.63;57.17;98557.59;4232935;33;34623;-70
2022/04/05 03:49:26;;;;;;;10.13;6.18;;;;;;;6.40;57.67;98560.34;4232172;33;35212;-70
2022/04/05 03:51:54;;;;;;;11.80;6.95;;;;;;;6.15;58.72;98565.66;4233830;33;34555;-70
2022/04/05 03:54:23;;;;;;;11.32;6.10;;;;;;;5.73;60.01;98564.97;4233012;33;33948;-69
2022/04/05 03:56:53;;;;;;;11.60;6.97;;;;;;;5.67;60.97;98563.25;4233878;33;33949;-71
2022/04/05 03:59:21;;;;;;;12.23;6.72;;;;;;;5.98;59.85;98562.31;4232920;33;35970;-71
2022/04/05 04:01:49;;;;;;;11.98;7.20;;;;;;;6.42;58.15;98561.19;4233914;33;34848;-70
2022/04/05 04:04:18;;;;;;;8.73;5.47;;;;;;;5.74;60.99;98560.69;4232305;33;33426;-71
2022/04/05 04:06:46;;;;;;;12.27;7.20;;;;;;;6.02;60.00;98558.84;4233414;33;33902;-69
2022/04/05 04:09:14;;;;;;;13.27;6.20;;;;;;;5.80;60.75;98563.22;4231734;33;34462;-70
2022/04/05 04:11:44;;;;;;;10.35;6.45;;;;;;;5.84;60.34;98564.91;4233338;33;34610;-71
2022/04/05 04:14:13;;;;;;;10.73;6.20;;;;;;;5.74;60.98;98556.34;4243139;33;34096;-70
2022/04/05 04:16:41;;;;;;;24.00;6.15;;;;;;;5.83;59.95;98558.88;4232564;33;34393;-71
2022/04/05 04:19:10;;;;;;;12.13;5.97;;;;;;;5.86;60.09;98566.63;4232899;33;35967;-70
2022/04/05 04:21:39;;;;;;;11.27;6.00;;;;;;;6.21;59.29;98550.12;4233374;33;34384;-70
2022/04/05 04:24:07;;;;;;;10.32;6.45;;;;;;;5.81;60.14;98549.44;4232224;33;33785;-70
2022/04/05 04:26:36;;;;;;;9.13;4.93;;;;;;;6.00;59.18;98550.22;4232523;33;33946;-70
2022/04/05 04:29:04;;;;;;;13.70;6.43;;;;;;;6.17;58.87;98553.59;4232533;33;35199;-71
2022/04/05 04:31:32;;;;;;;9.95;5.72;;;;;;;5.47;61.41;98554.72;4242922;33;34569;-70
2022/04/05 04:34:01;;;;;;;11.10;5.95;;;;;;;5.40;61.50;98553.91;4232392;33;34498;-69
2022/04/05 04:36:29;;;;;;;8.55;5.87;;;;;;;5.20;62.03;98556.50;4218269;34;33753;-70
2022/04/05 04:38:57;;;;;;;11.75;6.62;;;;;;;5.32;62.27;98560.78;4219153;33;35935;-70
2022/04/05 04:41:26;;;;;;;9.82;5.00;;;;;;;5.60;61.58;98558.13;4231984;33;35407;-70
2022/04/05 04:43:54;;;;;;;12.48;6.37;;;;;;;5.34;62.00;98563.38;4233300;33;33752;-69
2022/04/05 04:46:22;;;;;;;9.63;6.12;;;;;;;5.09;62.55;98563.41;4232478;33;33924;-70
2022/04/05 04:48:50;;;;;;;11.65;5.93;;;;;;;5.45;61.66;98565.06;4242991;33;35734;-69
2022/04/05 04:51:18;;;;;;;10.95;6.22;;;;;;;4.97;63.59;98574.59;4232404;33;34484;-70
2022/04/05 04:53:46;;;;;;;10.95;6.22;;;;;;;4.75;64.43;98573.75;4233298;33;34654;-70
2022/04/05 04:56:14;;;;;;;9.65;6.30;;;;;;;5.27;63.09;98572.84;4242189;33;34792;-70
2022/04/05 04:58:42;;;;;;;11.82;6.53;;;;;;;5.01;63.56;98573.75;4233197;33;35188;-70
2022/04/05 05:01:11;;;;;;;10.95;6.57;;;;;;;5.60;61.38;98573.63;4232282;33;34508;-69
2022/04/05 05:03:42;;;;;;;9.80;5.62;;;;;;;5.30;63.28;98568.53;4232307;33;34416;-71
2022/04/05 05:06:10;;;;;;;9.88;6.37;;;;;;;5.71;62.01;98569.28;4232407;33;34047;-70
2022/04/05 05:08:38;;;;;;;10.43;5.75;;;;;;;5.97;60.88;98565.78;4233188;33;35770;-70
2022/04/05 05:11:07;;;;;;;11.80;5.57;;;;;;;5.93;61.19;98564.00;4229291;33;33701;-70
2022/04/05 05:13:35;;;;;;;11.18;6.18;;;;;;;5.81;61.16;98560.63;4232197;33;33819;-71
2022/04/05 05:16:04;;;;;;;8.43;5.53;;;;;;;5.52;61.90;98563.31;4232415;33;34881;-69
2022/04/05 05:18:31;;;;;;;10.55;6.05;;;;;;;5.94;61.04;98565.75;4232086;33;35800;-70
2022/04/05 05:20:59;;;;;;;11.65;6.35;;;;;;;5.65;61.92;98558.97;4232345;33;34913;-70
2022/04/05 05:23:27;;;;;;;12.57;6.70;;;;;;;5.55;62.36;98560.72;4232412;33;33756;-71
2022/04/05 05:25:55;;;;;;;13.38;6.47;;;;;;;5.70;61.88;98557.25;4232361;33;33796;-70
2022/04/05 05:28:23;;;;;;;11.95;6.22;;;;;;;6.12;60.86;98555.34;4232241;33;35290;-70
2022/04/05 05:30:52;;;;;;;12.88;6.47;;;;;;;6.10;60.91;98559.66;4231729;33;34505;-69
2022/04/05 05:33:20;;;;;;;7.93;5.57;;;;;;;5.83;61.54;98561.47;4227770;33;33395;-70
2022/04/05 05:35:48;;;;;;;10.55;6.57;;;;;;;5.84;61.60;98560.63;4231485;33;34070;-70
2022/04/05 05:38:16;;;;;;;13.62;6.15;;;;;;;5.51;62.65;98557.28;4232894;33;34715;-70
2022/04/05 05:40:44;;;;;;;9.93;6.28;;;;;;;5.86;61.88;98558.03;4231497;33;33893;-70
2022/04/05 05:43:12;;;;;;;9.13;5.40;;;;;;;6.28;59.57;98550.06;4233258;33;33353;-70
2022/04/05 05:45:40;;;;;;;11.12;5.95;;;;;;;6.57;59.01;98550.75;4231241;33;33728;-70
2022/04/05 05:48:09;;;;;;;10.15;5.35;;;;;;;5.61;62.20;98552.09;4231125;33;35044;-71
2022/04/05 05:50:37;;;;;;;9.88;5.95;;;;;;;5.84;62.11;98559.75;4228437;33;34441;-70
2022/04/05 05:53:05;;;;;;;11.05;6.37;;;;;;;6.04;61.21;98562.28;4231870;33;33768;-70
2022/04/05 05:55:35;;;;;;;10.43;5.80;;;;;;;6.53;59.72;98567.16;4232034;33;33615;-70
2022/04/05 05:58:04;;;;;;;9.70;5.90;;;;;;;6.14;61.16;98578.59;4232707;33;35002;-70
2022/04/05 06:00:32;;;;;;;10.65;5.30;;;;;;;6.37;60.33;98583.63;4230746;33;34391;-70
2022/04/05 06:03:02;;;;;;;10.25;6.25;;;;;;;6.93;58.59;98582.38;4231370;33;33773;-70
2022/04/05 06:05:31;;;;;;;9.43;5.62;;;;;;;5.99;61.81;98579.53;4232157;33;35292;-70
2022/04/05 06:07:58;;;;;;;9.65;6.05;;;;;;;6.53;59.88;98585.28;4231408;33;35991;-70
2022/04/05 06:10:26;;;;;;;10.63;5.28;;;;;;;6.13;61.18;98582.06;4231379;33;34290;-70
2022/04/05 06:12:55;;;;;;;10.95;6.15;;;;;;;6.74;60.10;98585.97;4232458;33;33692;-70
2022/04/05 06:15:25;;;;;;;12.93;6.57;;;;;;;6.94;59.58;98593.59;4232001;33;34892;-71
2022/04/05 06:17:53;;;;;;;11.40;6.65;;;;;;;7.10;58.66;98594.31;4231248;33;35198;-70
2022/04/05 06:20:22;;;;;;;11.63;6.12;;;;;;;7.25;59.11;98598.50;4231925;33;34396;-70
2022/04/05 06:22:54;;;;;;;13.13;6.20;;;;;;;7.57;58.43;98595.56;4232707;33;33750;-70
2022/04/05 06:25:27;;;;;;;10.80;5.62;;;;;;;7.76;57.04;98588.47;4231937;33;33999;-70
2022/04/05 06:27:56;;;;;;;9.98;6.05;;;;;;;7.53;57.24;98588.72;4231985;33;34925;-71
2022/04/05 06:30:24;;;;;;;8.98;5.47;;;;;;;8.65;54.12;98589.91;4230660;33;34469;-70
2022/04/05 06:33:07;;;;;;;16.55;6.87;;;;;;;8.26;55.25;98591.28;4232594;33;33673;-71
2022/04/05 06:35:44;;;;;;;26.58;13.30;;;;;;;8.47;55.88;98585.84;4230571;33;33932;-70
2022/04/05 06:38:12;;;;;;;10.10;6.15;;;;;;;9.10;54.85;98584.84;4242930;33;34914;-69
2022/04/05 06:40:41;;;;;;;11.10;6.00;;;;;;;9.40;53.23;98574.81;4241774;33;33128;-70
2022/04/05 06:43:10;;;;;;;12.50;6.37;;;;;;;9.21;52.25;98582.09;4242719;33;34307;-70
2022/04/05 06:45:38;;;;;;;11.85;6.60;;;;;;;8.88;54.28;98581.78;4241842;33;34001;-70
2022/04/05 06:48:09;;;;;;;8.68;5.47;;;;;;;8.58;55.99;98582.22;4234289;33;35050;-70
2022/04/05 06:50:37;;;;;;;9.77;5.80;;;;;;;8.69;54.16;98580.34;4233455;33;33576;-70
2022/04/05 06:53:07;;;;;;;10.35;5.78;;;;;;;9.09;54.73;98584.91;4244540;33;34498;-70
2022/04/05 06:55:35;;;;;;;8.48;5.28;;;;;;;8.90;54.45;98587.78;4233402;33;33808;-71
2022/04/05 06:58:04;;;;;;;9.98;5.12;;;;;;;9.87;51.27;98570.44;4232985;33;36010;-70
2022/04/05 07:00:35;;;;;;;14.45;6.22;;;;;;;10.67;50.90;98574.81;4232712;33;34574;-70
2022/04/05 07:03:04;;;;;;;10.35;5.57;;;;;;;10.41;52.51;98574.53;4232510;33;34513;-71
2022/04/05 07:05:32;;;;;;;9.85;5.40;;;;;;;10.59;51.98;98567.22;4232094;33;33990;-70
2022/04/05 07:08:00;;;;;;;9.27;4.70;;;;;;;10.42;50.94;98570.19;4234223;33;34927;-70
2022/04/05 07:10:28;;;;;;;9.63;5.68;;;;;;;10.49;48.99;98574.34;4233515;33;34708;-70
2022/04/05 07:12:56;;;;;;;7.35;4.60;;;;;;;10.15;50.04;98580.28;4234104;33;34344;-70
2022/04/05 07:15:24;;;;;;;8.05;4.93;;;;;;;10.34;50.10;98577.28;4233138;33;33944;-71
2022/04/05 07:17:52;;;;;;;8.30;5.20;;;;;;;10.63;47.77;98581.84;4233288;33;35869;-71
2022/04/05 07:20:31;;;;;;;11.38;6.18;;;;;;;10.63;48.27;98579.25;4240247;33;35159;-70
2022/04/05 07:23:00;;;;;;;10.13;5.93;;;;;;;10.57;50.02;98577.66;4234165;33;33599;-71
2022/04/05 07:25:28;;;;;;;8.75;5.28;;;;;;;10.50;49.00;98575.19;4233213;33;33793;-70
2022/04/05 07:27:56;;;;;;;11.77;5.57;;;;;;;10.34;49.87;98564.28;4233988;33;35009;-71
2022/04/05 07:30:24;;;;;;;8.95;5.78;;;;;;;10.33;50.15;98573.00;4232350;33;34450;-71
2022/04/05 07:32:52;;;;;;;9.02;5.55;;;;;;;10.51;50.31;98574.31;4231704;33;33567;-71
2022/04/05 07:35:20;;;;;;;11.32;5.30;;;;;;;11.01;49.94;98572.25;4232391;33;34799;-70
2022/04/05 07:37:49;;;;;;;14.75;6.25;;;;;;;10.66;50.48;98566.16;4233951;33;35123;-71
2022/04/05 07:40:17;;;;;;;11.63;6.03;;;;;;;10.74;51.89;98564.22;4233262;33;34618;-70
2022/04/05 07:42:46;;;;;;;10.10;5.30;;;;;;;11.03;49.98;98560.06;4233919;33;34578;-71
2022/04/05 07:45:15;;;;;;;12.60;5.72;;;;;;;9.97;51.33;98559.84;4231891;33;32464;-71
2022/04/05 07:47:43;;;;;;;11.43;6.28;;;;;;;10.00;51.07;98560.63;4232738;33;34920;-71
2022/04/05 07:50:11;;;;;;;11.60;6.30;;;;;;;10.73;49.90;98567.72;4232231;33;34628;-70
2022/04/05 07:52:39;;;;;;;9.07;6.03;;;;;;;10.71;50.47;98574.72;4242967;33;33858;-70
2022/04/05 07:55:08;;;;;;;9.48;5.87;;;;;;;10.75;51.24;98572.91;4233130;33;33961;-71
2022/04/05 07:57:40;;;;;;;10.70;6.12;;;;;;;11.12;50.19;98565.03;4233692;33;35067;-71
2022/04/05 08:00:09;;;;;;;12.05;6.72;;;;;;;11.02;49.99;98571.38;4233068;33;35279;-70
2022/04/05 08:02:39;;;;;;;11.02;5.95;;;;;;;11.01;50.58;98572.25;4233921;33;34140;-70
2022/04/05 08:05:15;;;;;;;9.32;5.45;;;;;;;11.17;50.12;98578.81;4232257;33;33959;-71
2022/04/05 08:07:44;;;;;;;13.10;6.40;;;;;;;11.55;48.64;98574.31;4233812;33;34641;-70
2022/04/05 08:10:13;;;;;;;7.62;5.15;;;;;;;12.07;49.03;98579.00;4231860;33;34372;-71
2022/04/05 08:12:45;;;;;;;9.25;5.30;;;;;;;12.68;45.74;98563.25;4233742;33;33755;-71
2022/04/05 08:15:16;;;;;;;10.88;6.07;;;;;;;12.43;44.56;98565.78;4233098;33;34849;-71
2022/04/05 08:17:45;;;;;;;9.20;5.50;;;;;;;12.76;46.11;98565.59;4230046;33;34461;-71
2022/04/05 08:20:13;;;;;;;8.10;4.80;;;;;;;12.73;43.02;98565.72;4232880;33;35314;-71
2022/04/05 08:22:42;;;;;;;11.73;5.75;;;;;;;12.17;43.73;98569.16;4233699;33;33705;-70
2022/04/05 08:25:14;;;;;;;11.10;6.18;;;;;;;12.38;47.94;98567.66;4232810;33;33905;-71
2022/04/05 08:27:44;;;;;;;9.02;5.93;;;;;;;12.59;45.47;98574.00;4233696;33;35084;-70
2022/04/05 08:30:15;;;;;;;12.85;6.78;;;;;;;12.90;44.91;98573.88;4232985;33;33720;-71
2022/04/05 08:32:45;;;;;;;14.00;6.00;;;;;;;12.49;44.13;98578.63;4232613;33;33872;-71
2022/04/05 08:35:17;;;;;;;7.53;4.80;;;;;;;12.39;44.96;98577.19;4232862;33;33831;-70
2022/04/05 08:37:46;;;;;;;12.05;6.95;;;;;;;12.71;43.64;98578.81;4232826;33;35972;-70
2022/04/05 08:40:16;;;;;;;16.73;10.90;;;;;;;12.46;45.54;98578.75;4231644;33;33010;-70
2022/04/05 08:42:50;;;;;;;8.00;4.80;;;;;;;12.13;47.35;98573.63;4233495;33;33763;-70
2022/04/05 08:45:19;;;;;;;12.43;6.15;;;;;;;12.54;45.82;98568.91;4231664;33;34746;-70
2022/04/05 08:47:54;;;;;;;10.02;5.47;;;;;;;12.49;44.71;98565.56;4233445;33;36034;-70
2022/04/05 08:50:30;;;;;;;9.70;5.72;;;;;;;13.01;42.40;98571.75;4231711;33;35326;-71
2022/04/05 08:53:03;;;;;;;9.13;4.78;;;;;;;13.36;40.68;98568.87;4233643;33;33572;-70
2022/04/05 08:55:35;;;;;;;11.68;5.62;;;;;;;13.69;40.70;98569.44;4232771;33;34799;-70
2022/04/05 08:58:04;;;;;;;7.80;5.00;;;;;;;12.70;43.02;98564.03;4233375;33;35772;-71
2022/04/05 09:00:32;;;;;;;10.80;5.43;;;;;;;13.59;41.74;98566.31;4231522;33;34602;-71
2022/04/05 09:03:04;;;;;;;8.70;4.68;;;;;;;13.57;42.87;98562.91;4233406;33;34530;-71
2022/04/05 09:05:40;;;;;;;8.18;5.57;;;;;;;14.03;41.14;98565.63;4231542;33;33978;-70
2022/04/05 09:08:30;;;;;;;9.43;4.95;;;;;;;13.02;42.96;98568.25;4232876;33;36034;-69
2022/04/05 09:11:04;;;;;;;9.43;5.75;;;;;;;13.09;43.72;98574.09;4232566;33;34603;-70
2022/04/05 09:13:32;;;;;;;11.02;5.28;;;;;;;13.23;43.84;98571.03;4232421;33;33741;-70
2022/04/05 09:16:04;;;;;;;7.25;4.97;;;;;;;12.94;43.53;98564.19;4232309;33;34081;-70
2022/04/05 09:18:44;;;;;;;7.72;5.30;;;;;;;11.80;46.51;98567.59;4232449;33;35429;-71
2022/04/05 09:21:15;;;;;;;9.30;5.07;;;;;;;12.44;47.24;98577.91;4231472;33;34219;-70
2022/04/05 09:23:45;;;;;;;8.68;5.72;;;;;;;12.49;45.32;98573.41;4233341;33;34465;-70
2022/04/05 09:26:18;;;;;;;8.23;5.12;;;;;;;11.75;48.93;98570.31;4231768;33;35077;-70
2022/04/05 09:28:50;;;;;;;8.82;5.75;;;;;;;12.18;48.88;98569.13;4233178;33;35137;-70
2022/04/05 09:31:21;;;;;;;10.35;5.12;;;;;;;12.28;48.41;98569.69;4232506;33;34349;-70
2022/04/05 09:34:03;;;;;;;7.78;4.80;;;;;;;12.64;46.80;98557.25;4233282;33;34516;-70
2022/04/05 09:36:37;;;;;;;7.93;4.72;;;;;;;12.20;47.73;98567.31;4232536;33;34765;-70
2022/04/05 09:39:14;;;;;;;9.70;5.10;;;;;;;12.05;47.72;98568.63;4232426;33;35867;-70
2022/04/05 09:41:43;;;;;;;7.82;4.72;;;;;;;11.69;50.01;98581.78;4232415;33;34593;-70
2022/04/05 09:44:12;;;;;;;6.70;4.12;;;;;;;11.90;48.29;98575.13;4232219;33;34522;-70
2022/04/05 09:46:40;;;;;;;7.45;4.30;;;;;;;11.58;46.56;98582.06;4231057;33;33950;-70
2022/04/05 09:49:11;;;;;;;6.05;4.05;;;;;;;11.58;45.93;98571.62;4232242;33;35057;-69
2022/04/05 09:51:43;;;;;;;8.23;4.68;;;;;;;11.36;46.74;98573.09;4232085;33;34723;-70
2022/04/05 09:54:18;;;;;;;9.15;5.15;;;;;;;11.70;46.36;98573.06;4232264;33;34362;-70
2022/04/05 09:56:47;;;;;;;7.97;4.55;;;;;;;11.37;48.52;98590.47;4232148;33;34651;-70
2022/04/05 09:59:22;;;;;;;9.57;4.60;;;;;;;11.72;48.94;98573.03;4233196;33;35755;-70
2022/04/05 10:01:56;;;;;;;8.70;4.87;;;;;;;12.12;47.66;98571.91;4231395;33;34322;-70
2022/04/05 10:04:24;;;;;;;8.38;4.53;;;;;;;11.80;48.39;98576.25;4233006;33;33709;-71
2022/04/05 10:06:52;;;;;;;9.60;5.00;;;;;;;12.10;46.99;98582.38;4232071;33;34808;-70
2022/04/05 10:09:22;;;;;;;8.52;4.68;;;;;;;11.29;50.02;98584.59;4232924;33;34992;-70
2022/04/05 10:11:53;;;;;;;9.85;5.03;;;;;;;11.84;47.79;98583.13;4232056;33;34629;-70
2022/04/05 10:14:21;;;;;;;9.02;4.93;;;;;;;11.87;47.50;98576.94;4241504;33;33546;-70
2022/04/05 10:16:49;;;;;;;8.98;4.65;;;;;;;11.55;47.91;98583.91;4231825;33;34577;-70
2022/04/05 10:19:19;;;;;;;10.70;5.35;;;;;;;11.46;49.90;98584.16;4220163;33;35282;-70
2022/04/05 10:21:48;;;;;;;10.25;5.10;;;;;;;12.29;49.16;98571.41;4231973;33;34558;-70
2022/04/05 10:24:16;;;;;;;9.30;4.97;;;;;;;12.70;47.75;98574.50;4233312;33;34480;-70
2022/04/05 10:26:49;;;;;;;9.07;5.15;;;;;;;13.34;46.58;98573.31;4231639;33;34041;-70
2022/04/05 10:29:19;;;;;;;8.40;4.93;;;;;;;13.41;46.11;98570.44;4234388;33;36024;-70
2022/04/05 10:31:47;;;;;;;11.25;5.68;;;;;;;13.36;46.72;98558.41;4232554;33;34536;-71
2022/04/05 10:34:27;;;;;;;11.32;5.45;;;;;;;14.65;46.80;98565.88;4234388;33;33685;-70
2022/04/05 10:37:13;;;;;;;8.40;4.90;;;;;;;14.39;44.75;98558.09;4232451;33;33937;-70
2022/04/05 10:39:41;;;;;;;8.40;5.18;;;;;;;14.25;45.27;98563.03;4234338;33;35175;-70
2022/04/05 10:42:12;;;;;;;8.60;5.07;;;;;;;15.43;41.62;98549.53;4232748;33;35455;-70
2022/04/05 10:44:47;;;;;;;8.23;5.28;;;;;;;15.75;40.86;98562.22;4234319;33;34644;-70
2022/04/05 10:47:15;;;;;;;11.25;6.43;;;;;;;15.13;43.44;98556.94;4232456;33;34820;-70
2022/04/05 10:50:17;;;;;;;7.93;5.03;;;;;;;15.34;43.81;98556.03;4234156;33;34943;-70
2022/04/05 10:52:47;;;;;;;5.90;4.20;;;;;;;16.73;40.59;98565.56;4233471;33;34625;-71
2022/04/05 10:55:20;;;;;;;8.50;4.82;;;;;;;16.43;41.36;98552.94;4234209;33;33768;-72
2022/04/05 10:58:08;;;;;;;4.80;3.25;;;;;;;17.66;39.64;98540.72;4233517;33;33785;-71
2022/04/05 11:00:35;;;;;;;;;;;;;;;17.31;35.49;98545.19;4231450;33;35003;-70
2022/04/05 11:03:05;;;;;;;5.72;3.75;;;;;;;17.13;37.20;98547.81;4233477;33;34998;-70
2022/04/05 11:05:38;;;;;;;6.22;3.90;;;;;;;17.35;37.57;98544.13;4234124;33;34538;-71
2022/04/05 11:08:11;;;;;;;6.62;4.35;;;;;;;16.84;38.36;98559.81;4232281;33;34726;-70
2022/04/05 11:10:39;;;;;;;7.10;4.28;;;;;;;16.99;38.66;98550.28;4234137;33;35935;-71
2022/04/05 11:13:14;;;;;;;7.70;3.92;;;;;;;16.75;39.37;98550.56;4233091;33;35083;-71
2022/04/05 11:15:45;;;;;;;7.20;4.10;;;;;;;16.69;39.05;98553.47;4233428;33;33714;-71
2022/04/05 11:18:15;;;;;;;6.47;3.72;;;;;;;16.72;39.87;98542.81;4233548;33;34838;-70
2022/04/05 11:20:45;;;;;;;4.57;2.95;;;;;;;15.97;41.13;98552.47;4234005;33;35824;-71
2022/04/05 11:23:16;;;;;;;7.68;3.60;;;;;;;15.79;40.70;98561.16;4233324;33;34567;-70
2022/04/05 11:25:44;;;;;;;5.97;3.42;;;;;;;15.22;42.59;98560.97;4233973;33;33069;-70
2022/04/05 11:28:19;;;;;;;5.05;2.90;;;;;;;15.24;41.43;98552.09;4232468;33;34821;-70
2022/04/05 11:30:56;;;;;;;;;;;;;;;14.53;43.53;98562.81;4234478;33;35754;-70
2022/04/05 11:33:26;;;;;;;4.62;3.17;;;;;;;14.51;44.60;98564.66;4232012;33;35021;-70
2022/04/05 11:36:13;;;;;;;5.97;3.28;;;;;;;14.14;44.78;98563.44;4233730;33;33905;-70
2022/04/05 11:38:46;;;;;;;5.70;2.90;;;;;;;13.45;46.13;98561.56;4233981;33;33881;-71
2022/04/05 11:41:23;;;;;;;4.57;3.00;;;;;;;13.52;45.89;98563.97;4233340;33;35039;-70
2022/04/05 11:44:00;;;;;;;4.18;2.70;;;;;;;13.15;47.51;98566.06;4233908;33;34529;-70
2022/04/05 11:46:30;;;;;;;5.62;3.25;;;;;;;13.65;47.57;98562.63;4231950;33;33546;-70